createdAt,value
2023-01-07T08:35:31.454Z,11.06
2023-01-07T08:36:31.303Z,11.06
2023-01-07T08:37:31.309Z,11.10
2023-01-07T08:38:31.308Z,11.07
2023-01-07T08:39:31.295Z,11.07
2023-01-07T08:40:31.258Z,11.07
2023-01-07T08:41:31.257Z,11.09
2023-01-07T08:42:31.235Z,11.07
2023-01-07T08:43:31.341Z,11.11
2023-01-07T08:44:31.216Z,11.10
2023-01-07T08:45:31.207Z,11.14
2023-01-07T08:46:31.267Z,11.13
2023-01-07T08:47:31.184Z,11.14
2023-01-07T08:48:31.197Z,11.10
2023-01-07T08:49:31.162Z,11.10
2023-01-07T08:50:31.147Z,11.09
2023-01-07T08:51:31.269Z,11.11
2023-01-07T08:52:31.138Z,11.11
2023-01-07T08:53:31.143Z,11.10
2023-01-07T08:54:31.110Z,11.17
2023-01-07T08:55:31.107Z,11.10
2023-01-07T08:56:31.089Z,11.13
2023-01-07T08:57:31.085Z,11.10
2023-01-07T08:58:31.093Z,11.14
2023-01-07T08:59:31.064Z,11.19
2023-01-07T09:00:31.082Z,11.20
2023-01-07T09:01:31.176Z,11.17
2023-01-07T09:02:31.106Z,11.25
2023-01-07T09:03:31.028Z,11.16
2023-01-07T09:04:30.988Z,11.14
2023-01-07T09:05:31.003Z,11.21
2023-01-07T09:06:30.969Z,11.17
2023-01-07T09:07:31.087Z,11.17
2023-01-07T09:08:30.968Z,11.19
2023-01-07T09:09:30.954Z,11.28
2023-01-07T09:10:30.928Z,11.32
2023-01-07T09:11:30.922Z,11.31
2023-01-07T09:12:30.902Z,11.31
2023-01-07T09:13:30.921Z,11.29
2023-01-07T09:14:30.877Z,11.25
2023-01-07T09:15:30.865Z,11.36
2023-01-07T09:16:30.914Z,11.32
2023-01-07T09:17:30.854Z,11.29
2023-01-07T09:18:30.850Z,11.39
2023-01-07T09:19:30.832Z,11.41
2023-01-07T09:20:30.800Z,11.34
2023-01-07T09:21:30.823Z,11.41
2023-01-07T09:22:30.802Z,11.46
2023-01-07T09:23:30.907Z,11.43
2023-01-07T09:24:30.770Z,11.52
2023-01-07T09:25:30.783Z,11.41
2023-01-07T09:26:30.759Z,11.46
2023-01-07T09:27:30.741Z,11.49
2023-01-07T09:28:30.739Z,11.47
2023-01-07T09:29:30.706Z,11.54
2023-01-07T09:30:30.710Z,11.46
2023-01-07T09:31:30.737Z,11.46
2023-01-07T09:32:30.664Z,11.56
2023-01-07T09:33:30.696Z,11.49
2023-01-07T09:34:30.690Z,11.50
2023-01-07T09:35:30.638Z,11.54
2023-01-07T09:36:30.631Z,11.46
2023-01-07T09:37:30.639Z,11.56
2023-01-07T09:38:30.615Z,11.71
2023-01-07T09:39:30.717Z,11.65
2023-01-07T09:40:30.597Z,11.64
2023-01-07T09:41:30.585Z,11.56
2023-01-07T09:42:33.032Z,11.71
2023-01-07T09:44:01.030Z,11.71
2023-01-07T09:44:31.528Z,11.68
2023-01-07T09:45:30.599Z,11.64
2023-01-07T09:46:30.533Z,11.71
2023-01-07T09:47:30.512Z,11.64
2023-01-07T09:48:30.498Z,11.61
2023-01-07T09:49:30.476Z,11.62
2023-01-07T09:50:30.479Z,11.67
2023-01-07T09:51:30.455Z,11.68
2023-01-07T09:52:30.459Z,11.74
2023-01-07T09:53:30.465Z,11.65
2023-01-07T09:54:30.436Z,11.74
2023-01-07T09:55:30.540Z,11.77
2023-01-07T09:56:30.409Z,11.70
2023-01-07T09:57:30.398Z,11.72
2023-01-07T09:58:30.404Z,11.77
2023-01-07T09:59:30.368Z,11.70
2023-01-07T10:00:30.351Z,11.78
2023-01-07T10:01:30.469Z,11.74
2023-01-07T10:02:30.406Z,11.71
2023-01-07T10:03:30.502Z,11.68
2023-01-07T10:04:30.315Z,11.77
2023-01-07T10:05:30.311Z,11.83
2023-01-07T10:06:42.651Z,11.80
2023-01-07T10:07:31.271Z,11.83
2023-01-07T10:08:32.073Z,11.77
2023-01-07T10:09:30.251Z,11.82
2023-01-07T10:10:30.240Z,11.89
2023-01-07T10:11:30.371Z,11.93
2023-01-07T10:12:30.222Z,11.87
2023-01-07T10:13:30.242Z,12.05
2023-01-07T10:14:30.210Z,12.01
2023-01-07T10:15:30.201Z,12.08
2023-01-07T10:16:30.186Z,12.29
2023-01-07T10:17:30.178Z,12.29
2023-01-07T10:18:30.170Z,12.37
2023-01-07T10:19:30.161Z,12.45
2023-01-07T10:20:30.256Z,12.39
2023-01-07T10:21:30.137Z,12.48
2023-01-07T10:22:30.107Z,12.66
2023-01-07T10:23:30.126Z,12.67
2023-01-07T10:24:30.094Z,12.67
2023-01-07T10:25:30.085Z,12.71
2023-01-07T10:26:30.088Z,12.88
2023-01-07T10:27:30.200Z,12.84
2023-01-07T10:28:30.067Z,12.66
2023-01-07T10:29:30.035Z,12.66
2023-01-07T10:30:30.023Z,12.54
2023-01-07T10:31:30.088Z,12.52
2023-01-07T10:32:29.998Z,12.52
2023-01-07T10:33:29.992Z,12.46
2023-01-07T10:34:29.976Z,12.52
2023-01-07T10:35:29.967Z,12.52
2023-01-07T10:36:29.950Z,12.39
2023-01-07T10:37:29.949Z,12.44
2023-01-07T10:38:29.943Z,12.44
2023-01-07T10:39:29.930Z,12.41
2023-01-07T10:40:29.893Z,12.45
2023-01-07T10:41:29.900Z,12.38
2023-01-07T10:42:29.880Z,12.42
2023-01-07T10:43:29.921Z,12.39
2023-01-07T10:44:29.874Z,12.20
2023-01-07T10:45:29.861Z,12.27
2023-01-07T10:46:29.840Z,12.11
2023-01-07T10:47:29.818Z,12.13
2023-01-07T10:48:29.846Z,12.11
2023-01-07T10:49:29.823Z,12.21
2023-01-07T10:50:29.803Z,12.08
2023-01-07T10:51:29.783Z,12.13
2023-01-07T10:52:29.771Z,12.12
2023-01-07T10:53:29.781Z,12.02
2023-01-07T10:54:29.761Z,12.01
2023-01-07T10:55:29.738Z,11.94
2023-01-07T10:56:29.731Z,12.01
2023-01-07T10:57:29.707Z,11.90
2023-01-07T10:58:29.703Z,11.83
2023-01-07T10:59:29.817Z,11.90
2023-01-07T11:00:29.665Z,11.90
2023-01-07T11:01:29.835Z,11.93
2023-01-07T11:02:29.930Z,11.83
2023-01-07T11:03:29.736Z,11.94
2023-01-07T11:04:29.650Z,11.94
2023-01-07T11:05:29.667Z,11.89
2023-01-07T11:06:29.612Z,11.83
2023-01-07T11:07:29.621Z,11.96
2023-01-07T11:08:29.684Z,11.86
2023-01-07T11:09:29.572Z,11.87
2023-01-07T11:10:29.569Z,11.75
2023-01-07T11:11:29.550Z,11.85
2023-01-07T11:12:29.530Z,11.71
2023-01-07T11:13:29.543Z,11.78
2023-01-07T11:14:29.524Z,11.75
2023-01-07T11:15:29.638Z,11.80
2023-01-07T11:16:29.578Z,11.70
2023-01-07T11:17:29.485Z,11.77
2023-01-07T11:18:29.495Z,11.80
2023-01-07T11:19:29.459Z,11.74
2023-01-07T11:20:29.456Z,11.74
2023-01-07T11:21:44.416Z,11.78
2023-01-07T11:22:30.423Z,11.75
2023-01-07T11:23:29.449Z,11.75
2023-01-07T11:24:29.419Z,11.71
2023-01-07T11:25:29.447Z,11.77
2023-01-07T11:26:29.372Z,11.71
2023-01-07T11:27:29.380Z,11.74
2023-01-07T11:28:29.383Z,11.71
2023-01-07T11:29:29.342Z,11.71
2023-01-07T11:30:29.329Z,11.78
2023-01-07T11:31:29.495Z,11.85
2023-01-07T11:32:29.308Z,11.82
2023-01-07T11:34:01.978Z,11.83
2023-01-07T11:34:30.283Z,11.86
2023-01-07T11:35:29.287Z,11.90
2023-01-07T11:36:29.258Z,11.85
2023-01-07T11:37:29.261Z,11.82
2023-01-07T11:38:29.255Z,11.94
2023-01-07T11:39:29.235Z,12.01
2023-01-07T11:40:29.226Z,12.01
2023-01-07T11:41:29.222Z,12.06
2023-01-07T11:42:29.194Z,11.96
2023-01-07T11:43:29.199Z,12.08
2023-01-07T11:44:29.187Z,12.06
2023-01-07T11:45:29.229Z,12.02
2023-01-07T11:46:29.217Z,12.11
2023-01-07T11:47:29.295Z,12.05
2023-01-07T11:48:29.169Z,12.05
2023-01-07T11:49:29.141Z,12.19
2023-01-07T11:50:29.130Z,12.12
2023-01-07T11:51:29.101Z,12.16
2023-01-07T11:52:29.097Z,12.15
2023-01-07T11:53:29.077Z,12.11
2023-01-07T11:54:29.058Z,12.19
2023-01-07T11:55:29.056Z,12.26
2023-01-07T11:56:29.047Z,12.27
2023-01-07T11:57:29.026Z,12.26
2023-01-07T11:58:30.951Z,12.20
2023-01-07T11:59:29.014Z,12.24
2023-01-07T12:00:29.005Z,12.16
2023-01-07T12:01:29.028Z,12.20
2023-01-07T12:02:29.024Z,12.31
2023-01-07T12:03:29.134Z,12.29
2023-01-07T12:04:28.962Z,12.39
2023-01-07T12:05:28.950Z,12.39
2023-01-07T12:06:28.940Z,12.34
2023-01-07T12:07:28.905Z,12.31
2023-01-07T12:08:29.052Z,12.34
2023-01-07T12:09:28.884Z,12.26
2023-01-07T12:10:28.874Z,12.39
2023-01-07T12:11:28.875Z,12.37
2023-01-07T12:12:28.871Z,12.33
2023-01-07T12:13:28.865Z,12.45
2023-01-07T12:14:28.844Z,12.41
2023-01-07T12:15:28.827Z,12.42
2023-01-07T12:16:28.891Z,12.38
2023-01-07T12:17:28.811Z,12.31
2023-01-07T12:18:28.813Z,12.51
2023-01-07T12:19:28.899Z,12.45
2023-01-07T12:20:28.767Z,12.51
2023-01-07T12:21:28.747Z,12.54
2023-01-07T12:22:28.741Z,12.48
2023-01-07T12:23:28.746Z,12.63
2023-01-07T12:24:28.724Z,12.54
2023-01-07T12:25:28.712Z,12.59
2023-01-07T12:26:28.744Z,12.71
2023-01-07T12:27:28.679Z,12.63
2023-01-07T12:28:28.685Z,12.52
2023-01-07T12:29:28.671Z,12.63
2023-01-07T12:30:28.654Z,12.75
2023-01-07T12:31:28.706Z,12.59
2023-01-07T12:32:28.641Z,12.67
2023-01-07T12:33:28.635Z,12.71
2023-01-07T12:34:28.601Z,12.77
2023-01-07T12:35:28.723Z,12.78
2023-01-07T12:36:28.596Z,12.84
2023-01-07T12:37:28.588Z,12.66
2023-01-07T12:38:28.575Z,12.81
2023-01-07T12:39:28.555Z,12.67
2023-01-07T12:40:28.540Z,12.79
2023-01-07T12:41:28.535Z,12.77
2023-01-07T12:42:28.528Z,12.82
2023-01-07T12:43:28.524Z,12.79
2023-01-07T12:44:28.502Z,12.66
2023-01-07T12:45:28.485Z,12.81
2023-01-07T12:46:28.553Z,12.75
2023-01-07T12:47:31.734Z,12.79
2023-01-07T12:48:29.488Z,12.75
2023-01-07T12:49:28.433Z,12.75
2023-01-07T12:50:28.427Z,12.82
2023-01-07T12:51:28.555Z,12.81
2023-01-07T12:52:28.405Z,12.96
2023-01-07T12:53:28.400Z,13.11
2023-01-07T12:54:28.402Z,13.30
2023-01-07T12:55:28.389Z,13.54
2023-01-07T12:56:28.446Z,13.56
2023-01-07T12:57:28.425Z,13.51
2023-01-07T12:58:28.349Z,13.37
2023-01-07T12:59:46.282Z,13.27
2023-01-07T13:00:29.306Z,13.11
2023-01-07T13:01:28.509Z,13.02
2023-01-07T13:02:28.369Z,13.03
2023-01-07T13:03:28.283Z,12.99
2023-01-07T13:04:28.366Z,12.87
2023-01-07T13:05:28.275Z,12.92
2023-01-07T13:06:28.387Z,12.81
2023-01-07T13:07:28.277Z,12.88
2023-01-07T13:08:28.248Z,12.70
2023-01-07T13:09:28.201Z,12.87
2023-01-07T13:10:28.214Z,12.67
2023-01-07T13:11:28.192Z,12.71
2023-01-07T13:12:42.314Z,12.75
2023-01-07T13:13:29.178Z,12.78
2023-01-07T13:14:28.162Z,12.77
2023-01-07T13:15:28.142Z,12.69
2023-01-07T13:16:28.227Z,12.81
2023-01-07T13:17:28.124Z,12.75
2023-01-07T13:18:28.116Z,12.69
2023-01-07T13:19:28.100Z,12.71
2023-01-07T13:20:28.096Z,12.69
2023-01-07T13:21:28.079Z,12.77
2023-01-07T13:22:28.069Z,12.77
2023-01-07T13:23:28.180Z,12.64
2023-01-07T13:24:54.717Z,12.74
2023-01-07T13:25:29.044Z,12.67
2023-01-07T13:26:28.024Z,12.79
2023-01-07T13:27:28.037Z,12.81
2023-01-07T13:28:28.007Z,12.69
2023-01-07T13:29:27.974Z,12.75
2023-01-07T13:30:27.980Z,12.85
2023-01-07T13:31:28.011Z,12.79
2023-01-07T13:32:27.944Z,12.69
2023-01-07T13:33:27.963Z,12.92
2023-01-07T13:34:27.936Z,12.77
2023-01-07T13:35:27.923Z,12.74
2023-01-07T13:36:27.920Z,12.88
2023-01-07T13:37:27.898Z,12.70
2023-01-07T13:38:27.905Z,12.87
2023-01-07T13:39:27.990Z,12.84
2023-01-07T13:40:27.865Z,12.85
2023-01-07T13:41:27.851Z,12.67
2023-01-07T13:42:27.844Z,12.67
2023-01-07T13:43:27.834Z,12.74
2023-01-07T13:44:27.824Z,12.74
2023-01-07T13:45:27.800Z,12.82
2023-01-07T13:46:27.851Z,12.89
2023-01-07T13:47:27.786Z,13.06
2023-01-07T13:48:27.791Z,13.18
2023-01-07T13:49:27.861Z,13.30
2023-01-07T13:50:27.776Z,13.36
2023-01-07T13:51:27.723Z,13.40
2023-01-07T13:52:27.733Z,13.52
2023-01-07T13:53:27.732Z,13.41
2023-01-07T13:54:27.708Z,13.52
2023-01-07T13:55:27.856Z,13.61
2023-01-07T13:56:27.695Z,13.67
2023-01-07T13:57:27.659Z,13.70
2023-01-07T13:58:27.853Z,13.47
2023-01-07T13:59:27.635Z,13.47
2023-01-07T14:00:27.643Z,13.41
2023-01-07T14:01:27.803Z,13.20
2023-01-07T14:02:27.734Z,13.22
2023-01-07T14:03:27.603Z,13.22
2023-01-07T14:04:27.595Z,13.21
2023-01-07T14:05:27.579Z,13.15
2023-01-07T14:06:27.581Z,13.24
2023-01-07T14:07:27.563Z,13.09
2023-01-07T14:08:27.566Z,13.09
2023-01-07T14:09:27.539Z,13.03
2023-01-07T14:10:27.521Z,12.99
2023-01-07T14:11:27.649Z,13.03
2023-01-07T14:12:27.491Z,12.96
2023-01-07T14:13:27.503Z,12.96
2023-01-07T14:14:27.480Z,13.06
2023-01-07T14:15:27.454Z,13.00
2023-01-07T14:16:27.575Z,13.00
2023-01-07T14:17:27.471Z,12.95
2023-01-07T14:18:27.442Z,12.87
2023-01-07T14:19:27.423Z,12.85
2023-01-07T14:20:27.450Z,12.87
2023-01-07T14:21:27.385Z,12.84
2023-01-07T14:22:27.398Z,12.81
2023-01-07T14:23:27.484Z,12.81
2023-01-07T14:24:27.353Z,12.96
2023-01-07T14:25:27.358Z,12.92
2023-01-07T14:26:27.344Z,12.87
2023-01-07T14:27:27.437Z,12.84
2023-01-07T14:28:27.327Z,12.79
2023-01-07T14:29:27.292Z,12.81
2023-01-07T14:30:27.300Z,12.92
2023-01-07T14:31:27.392Z,12.85
2023-01-07T14:32:27.264Z,12.82
2023-01-07T14:33:27.279Z,12.85
2023-01-07T14:34:27.261Z,12.81
2023-01-07T14:35:27.225Z,12.70
2023-01-07T14:36:27.235Z,12.82
2023-01-07T14:37:27.218Z,12.88
2023-01-07T14:38:27.221Z,12.75
2023-01-07T14:39:27.210Z,12.81
2023-01-07T14:40:27.187Z,12.77
2023-01-07T14:41:27.157Z,12.69
2023-01-07T14:42:27.162Z,12.77
2023-01-07T14:43:27.286Z,12.69
2023-01-07T14:44:27.148Z,12.69
2023-01-07T14:45:27.114Z,12.63
2023-01-07T14:46:27.193Z,12.64
2023-01-07T14:47:27.089Z,12.57
2023-01-07T14:48:27.112Z,12.63
2023-01-07T14:49:27.067Z,12.69
2023-01-07T14:50:27.094Z,12.57
2023-01-07T14:51:27.048Z,12.49
2023-01-07T14:52:27.054Z,12.52
2023-01-07T14:53:27.062Z,12.52
2023-01-07T14:54:27.027Z,12.52
2023-01-07T14:55:27.014Z,12.37
2023-01-07T14:56:27.008Z,12.37
2023-01-07T14:57:26.989Z,12.45
2023-01-07T14:58:27.021Z,12.31
2023-01-07T14:59:27.083Z,12.38
2023-01-07T15:00:26.962Z,12.24
2023-01-07T15:01:27.125Z,12.34
2023-01-07T15:02:27.181Z,12.37
2023-01-07T15:03:26.985Z,12.16
2023-01-07T15:04:26.908Z,12.26
2023-01-07T15:05:26.902Z,12.13
2023-01-07T15:06:26.885Z,12.21
2023-01-07T15:07:26.863Z,12.19
2023-01-07T15:08:26.871Z,12.16
2023-01-07T15:09:26.866Z,12.09
2023-01-07T15:10:26.852Z,12.05
2023-01-07T15:11:26.819Z,12.16
2023-01-07T15:12:26.824Z,12.01
2023-01-07T15:13:26.832Z,12.11
2023-01-07T15:14:26.793Z,11.94
2023-01-07T15:15:26.894Z,11.96
2023-01-07T15:16:26.882Z,11.90
2023-01-07T15:17:26.756Z,11.87
2023-01-07T15:18:26.769Z,11.94
2023-01-07T15:19:26.741Z,11.86
2023-01-07T15:20:26.738Z,11.83
2023-01-07T15:21:26.726Z,11.83
2023-01-07T15:22:26.723Z,11.75
2023-01-07T15:23:26.700Z,11.80
2023-01-07T15:24:26.693Z,11.71
2023-01-07T15:25:26.691Z,11.82
2023-01-07T15:26:26.652Z,11.74
2023-01-07T15:27:28.953Z,11.70
2023-01-07T15:28:26.791Z,11.71
2023-01-07T15:29:26.627Z,11.68
2023-01-07T15:30:26.605Z,11.71
2023-01-07T15:31:26.759Z,11.61
2023-01-07T15:32:26.585Z,11.72
2023-01-07T15:33:26.609Z,11.71
2023-01-07T15:34:26.568Z,11.64
2023-01-07T15:35:26.546Z,11.61
2023-01-07T15:36:26.567Z,11.59
2023-01-07T15:37:26.523Z,11.57
2023-01-07T15:38:26.553Z,11.50
2023-01-07T15:39:26.505Z,11.56
2023-01-07T15:40:26.512Z,11.47
2023-01-07T15:41:26.477Z,11.49
2023-01-07T15:42:26.483Z,11.46
2023-01-07T15:43:26.485Z,11.39
2023-01-07T15:44:29.018Z,11.47
2023-01-07T15:45:26.444Z,11.41
2023-01-07T15:46:26.540Z,11.41
2023-01-07T15:47:26.543Z,11.34
2023-01-07T15:48:26.420Z,11.44
2023-01-07T15:49:26.407Z,11.38
2023-01-07T15:50:26.394Z,11.27
2023-01-07T15:51:26.368Z,11.25
2023-01-07T15:52:26.376Z,11.28
2023-01-07T15:53:26.366Z,11.24
2023-01-07T15:54:26.343Z,11.17
2023-01-07T15:55:26.344Z,11.10
2023-01-07T15:56:26.327Z,11.16
2023-01-07T15:57:26.319Z,11.09
2023-01-07T15:58:26.334Z,11.10
2023-01-07T15:59:26.275Z,11.10
2023-01-07T16:00:26.270Z,11.01
2023-01-07T16:01:26.432Z,11.06
2023-01-07T16:02:26.285Z,11.03
2023-01-07T16:03:26.360Z,11.07
2023-01-07T16:04:26.304Z,11.06
2023-01-07T16:05:26.239Z,10.95
2023-01-07T16:06:26.196Z,11.06
2023-01-07T16:07:26.193Z,10.96
2023-01-07T16:08:26.194Z,11.02
2023-01-07T16:09:26.158Z,10.98
2023-01-07T16:10:26.164Z,10.98
2023-01-07T16:11:26.164Z,10.98
2023-01-07T16:12:26.136Z,11.01
2023-01-07T16:13:26.137Z,11.01
2023-01-07T16:14:26.127Z,10.98
2023-01-07T16:15:26.113Z,10.95
2023-01-07T16:16:26.121Z,10.92
2023-01-07T16:17:26.072Z,10.88
2023-01-07T16:18:26.081Z,10.84
2023-01-07T16:19:26.171Z,10.84
2023-01-07T16:20:27.631Z,10.89
2023-01-07T16:21:26.033Z,10.76
2023-01-07T16:22:26.028Z,10.71
2023-01-07T16:23:26.051Z,10.80
2023-01-07T16:24:26.005Z,10.78
2023-01-07T16:25:26.003Z,10.76
2023-01-07T16:26:25.977Z,10.83
2023-01-07T16:27:25.981Z,10.74
2023-01-07T16:28:25.993Z,10.76
2023-01-07T16:29:25.959Z,10.65
2023-01-07T16:30:25.934Z,10.65
2023-01-07T16:31:26.069Z,10.59
2023-01-07T16:32:25.904Z,10.68
2023-01-07T16:33:25.917Z,10.66
2023-01-07T16:34:25.886Z,10.55
2023-01-07T16:35:26.000Z,10.70
2023-01-07T16:36:25.862Z,10.52
2023-01-07T16:37:25.855Z,10.53
2023-01-07T16:38:25.849Z,10.55
2023-01-07T16:39:25.845Z,10.63
2023-01-07T16:40:25.802Z,10.55
2023-01-07T16:41:25.798Z,10.62
2023-01-07T16:42:25.796Z,10.58
2023-01-07T16:43:25.801Z,10.55
2023-01-07T16:44:25.761Z,10.63
2023-01-07T16:45:25.765Z,10.78
2023-01-07T16:46:25.783Z,10.78
2023-01-07T16:47:25.728Z,10.73
2023-01-07T16:48:25.723Z,10.77
2023-01-07T16:49:25.717Z,10.74
2023-01-07T16:50:25.710Z,10.78
2023-01-07T16:51:25.816Z,10.71
2023-01-07T16:52:25.671Z,10.74
2023-01-07T16:53:25.742Z,10.80
2023-01-07T16:54:25.652Z,10.74
2023-01-07T16:55:25.653Z,10.84
2023-01-07T16:56:25.633Z,10.76
2023-01-07T16:57:25.626Z,10.71
2023-01-07T16:58:25.738Z,10.63
2023-01-07T16:59:25.590Z,10.71
2023-01-07T17:00:25.722Z,10.73
2023-01-07T17:01:25.644Z,10.73
2023-01-07T17:02:25.561Z,10.78
2023-01-07T17:03:25.601Z,10.71
2023-01-07T17:04:25.531Z,10.76
2023-01-07T17:05:25.543Z,10.77
2023-01-07T17:06:25.513Z,10.70
2023-01-07T17:07:25.643Z,10.76
2023-01-07T17:08:25.726Z,10.68
2023-01-07T17:09:25.536Z,10.71
2023-01-07T17:10:25.503Z,10.81
2023-01-07T17:11:25.467Z,10.76
2023-01-07T17:12:25.457Z,10.78
2023-01-07T17:13:25.560Z,10.62
2023-01-07T17:14:25.416Z,10.73
2023-01-07T17:15:25.424Z,10.74
2023-01-07T17:16:25.502Z,10.70
2023-01-07T17:17:25.391Z,10.77
2023-01-07T17:18:25.539Z,10.73
2023-01-07T17:19:25.383Z,10.78
2023-01-07T17:20:25.364Z,10.77
2023-01-07T17:21:25.362Z,10.70
2023-01-07T17:22:25.349Z,10.73
2023-01-07T17:23:25.542Z,10.70
2023-01-07T17:24:25.316Z,10.80
2023-01-07T17:25:25.354Z,10.80
2023-01-07T17:26:25.277Z,10.71
2023-01-07T17:27:25.272Z,10.70
2023-01-07T17:28:25.716Z,10.73
2023-01-07T17:29:25.270Z,10.73
2023-01-07T17:30:25.234Z,10.76
2023-01-07T17:31:25.285Z,10.83
2023-01-07T17:32:25.227Z,10.78
2023-01-07T17:33:25.231Z,10.65
2023-01-07T17:34:25.335Z,10.77
2023-01-07T17:35:25.177Z,10.83
2023-01-07T17:36:25.181Z,10.81
2023-01-07T17:37:25.176Z,10.77
2023-01-07T17:38:25.182Z,10.84
2023-01-07T17:39:25.268Z,10.78
2023-01-07T17:40:25.139Z,10.84
2023-01-07T17:41:25.136Z,10.71
2023-01-07T17:42:25.100Z,10.74
2023-01-07T17:43:25.107Z,10.62
2023-01-07T17:44:25.094Z,10.74
2023-01-07T17:45:25.086Z,10.78
2023-01-07T17:46:25.147Z,10.77
2023-01-07T17:47:25.050Z,10.71
2023-01-07T17:48:25.048Z,10.70
2023-01-07T17:49:25.039Z,10.71
2023-01-07T17:50:25.016Z,10.66
2023-01-07T17:51:25.004Z,10.66
2023-01-07T17:52:25.046Z,10.66
2023-01-07T17:53:25.001Z,10.62
2023-01-07T17:54:24.966Z,10.74
2023-01-07T17:55:25.085Z,10.71
2023-01-07T17:56:24.958Z,10.60
2023-01-07T17:57:24.943Z,10.70
2023-01-07T17:58:24.928Z,10.73
2023-01-07T17:59:24.916Z,10.68
2023-01-07T18:00:24.908Z,10.73
2023-01-07T18:01:25.058Z,10.59
2023-01-07T18:02:24.999Z,10.74
2023-01-07T18:03:24.890Z,10.60
2023-01-07T18:04:24.850Z,10.63
2023-01-07T18:05:24.841Z,10.65
2023-01-07T18:06:24.837Z,10.70
2023-01-07T18:07:24.823Z,10.63
2023-01-07T18:08:24.815Z,10.58
2023-01-07T18:09:24.811Z,10.63
2023-01-07T18:10:24.792Z,10.59
2023-01-07T18:11:24.889Z,10.66
2023-01-07T18:12:24.758Z,10.71
2023-01-07T18:13:24.770Z,10.76
2023-01-07T18:14:24.736Z,10.55
2023-01-07T18:15:24.740Z,10.62
2023-01-07T18:16:24.767Z,10.70
2023-01-07T18:17:24.722Z,10.58
2023-01-07T18:18:24.702Z,10.59
2023-01-07T18:19:24.693Z,10.58
2023-01-07T18:20:24.691Z,10.74
2023-01-07T18:21:24.672Z,10.73
2023-01-07T18:22:24.658Z,10.65
2023-01-07T18:23:24.672Z,10.66
2023-01-07T18:24:24.650Z,10.65
2023-01-07T18:25:24.621Z,10.59
2023-01-07T18:26:24.658Z,10.47
2023-01-07T18:27:24.718Z,10.65
2023-01-07T18:28:24.600Z,10.66
2023-01-07T18:29:24.597Z,10.68
2023-01-07T18:30:24.562Z,10.65
2023-01-07T18:31:24.587Z,10.66
2023-01-07T18:32:24.531Z,10.65
2023-01-07T18:33:24.538Z,10.66
